Cosco Hope — VRKF2 — position and weather

sailwx.info

Track history (hours):
 
Tides and Currents Weather Stations Pressure Air Temp Water Temp Dewpoint Dewpoint Depression Visibility Wind Speed Wind Dir Waves Ship Positions

Cosco Hope

Last reported at 2018-Feb-23 21:55 UTC. Time now 2018-Feb-25 02:11 UTC.
Position N 24°00' E 118°45'.

Length 366 m; draft 11.1 m.

Type: Ship (hazmat cat B). MMSI: 477598800.

Date/timePositionNaut miles runAvg speedWind from/ knotsBaromVisibWave heightAir tempDewpointWater temp
2018-Feb-23 21:55N 24°00' E 118°45'818.1
2018-Feb-23 21:30N 23°55' E 118°38'1118.4
2018-Feb-23 20:55N 23°49' E 118°29'1818.8
2018-Feb-23 19:57N 23°37' E 118°14'918.8
2018-Feb-23 19:29N 23°32' E 118°06'919.1
2018-Feb-23 19:00N 23°28' E 117°57'1019.2
2018-Feb-23 18:29N 23°23' E 117°48'918.7
2018-Feb-23 18:01N 23°20' E 117°39'1019.2
2018-Feb-23 17:30N 23°14' E 117°30'1019.1
2018-Feb-23 17:00N 23°08' E 117°22'18615.4
2018-Feb-23 04:54N 22°20' E 114°07'1 0.0
2018-Feb-22 13:56N 22°20' E 114°07'  
2018-Feb-19 05:46N 01°15' E 104°11'514.7
2018-Feb-19 05:28N 01°15' E 104°06'714.6
2018-Feb-19 04:59N 01°15' E 103°59'511.2
2018-Feb-19 04:30N 01°13' E 103°54'5 9.2
2018-Feb-19 03:59N 01°11' E 103°50'4 8.1
2018-Feb-19 03:30N 01°14' E 103°47'2 3.6
2018-Feb-19 03:00N 01°16' E 103°48'0 0.2
2018-Feb-19 02:30N 01°16' E 103°48'0 0.0
2018-Feb-19 01:57N 01°16' E 103°48'0 0.0
2018-Feb-19 01:30N 01°16' E 103°48'0 0.0
2018-Feb-19 00:57N 01°16' E 103°48'0 0.0
2018-Feb-19 00:27N 01°16' E 103°48'0 0.0
2018-Feb-18 23:57N 01°16' E 103°48'0 0.0
2018-Feb-18 23:30N 01°16' E 103°48'0 0.0
2018-Feb-18 22:57N 01°16' E 103°48'0 0.0
2018-Feb-18 22:27N 01°16' E 103°48'0 0.0
2018-Feb-18 21:57N 01°16' E 103°48'0 0.1
2018-Feb-18 21:27N 01°16' E 103°48'0 0.1
2018-Feb-18 20:57N 01°16' E 103°48'0 0.0
2018-Feb-18 20:27N 01°16' E 103°48'0 0.0
2018-Feb-18 19:48N 01°16' E 103°48'0 0.0
2018-Feb-18 19:27N 01°16' E 103°48'0 0.0
2018-Feb-18 19:00N 01°16' E 103°48'0 0.0
2018-Feb-18 18:27N 01°16' E 103°48'0 0.0
2018-Feb-18 18:00N 01°16' E 103°48'0 0.0
2018-Feb-18 17:27N 01°16' E 103°48'0 0.0
2018-Feb-18 17:00N 01°16' E 103°48'0 0.0
2018-Feb-18 16:21N 01°16' E 103°48'0 0.0
2018-Feb-18 15:57N 01°16' E 103°48'0 0.0
2018-Feb-18 15:27N 01°16' E 103°48'0 0.0
2018-Feb-18 14:57N 01°16' E 103°48'0 0.0
2018-Feb-18 14:30N 01°16' E 103°48'0 0.0
2018-Feb-18 13:57N 01°16' E 103°48'0 0.0
2018-Feb-18 13:27N 01°16' E 103°48'0 0.0
2018-Feb-18 12:57N 01°16' E 103°48'0 0.0
2018-Feb-18 12:27N 01°16' E 103°48'0 0.0
2018-Feb-18 11:57N 01°16' E 103°48'0 0.0
2018-Feb-18 11:21N 01°16' E 103°48'0 0.0
2018-Feb-18 10:45N 01°16' E 103°48'0 0.0
2018-Feb-18 10:27N 01°16' E 103°48'0 0.0
2018-Feb-18 09:48N 01°16' E 103°48'0 0.0
2018-Feb-18 09:21N 01°16' E 103°48'0 0.0
2018-Feb-18 09:00N 01°16' E 103°48'0 0.0
2018-Feb-18 08:30N 01°16' E 103°48'2 3.8
2018-Feb-18 07:59N 01°15' E 103°46'714.0
2018-Feb-18 07:31N 01°12' E 103°40'5 8.8
2018-Feb-18 06:59N 01°12' E 103°35'3 5.2
2018-Feb-18 06:30N 01°10' E 103°33'3 5.4
2018-Feb-18 05:56N 01°08' E 103°31'511.1
2018-Feb-18 05:30N 01°11' E 103°27'712.9
2018-Feb-18 04:59N 01°15' E 103°21'1014.3
2018-Feb-18 04:16N 01°21' E 103°13'90019.4
2018-Feb-16 06:00N 05°54' E 088°54'   060 / 141020.9 2.2 30.025.829.0
Track history (hours):
 
Tides and Currents Weather Stations Pressure Air Temp Water Temp Dewpoint Dewpoint Depression Visibility Wind Speed Wind Dir Waves Ship Positions

Cosco Hope

Last reported at 2018-Feb-23 21:55 UTC. Time now 2018-Feb-25 02:11 UTC.
Position N 24°00' E 118°45'.

Length 366 m; draft 11.1 m.

Type: Ship (hazmat cat B). MMSI: 477598800.

Date/timePositionNaut miles runAvg speedWind from/ knotsBaromVisibWave heightAir tempDewpointWater temp
2018-Feb-23 21:55N 24°00' E 118°45'818.1
2018-Feb-23 21:30N 23°55' E 118°38'1118.4
2018-Feb-23 20:55N 23°49' E 118°29'1818.8
2018-Feb-23 19:57N 23°37' E 118°14'918.8
2018-Feb-23 19:29N 23°32' E 118°06'919.1
2018-Feb-23 19:00N 23°28' E 117°57'1019.2
2018-Feb-23 18:29N 23°23' E 117°48'918.7
2018-Feb-23 18:01N 23°20' E 117°39'1019.2
2018-Feb-23 17:30N 23°14' E 117°30'1019.1
2018-Feb-23 17:00N 23°08' E 117°22'18615.4
2018-Feb-23 04:54N 22°20' E 114°07'1 0.0
2018-Feb-22 13:56N 22°20' E 114°07'  
2018-Feb-19 05:46N 01°15' E 104°11'514.7
2018-Feb-19 05:28N 01°15' E 104°06'714.6
2018-Feb-19 04:59N 01°15' E 103°59'511.2
2018-Feb-19 04:30N 01°13' E 103°54'5 9.2
2018-Feb-19 03:59N 01°11' E 103°50'4 8.1
2018-Feb-19 03:30N 01°14' E 103°47'2 3.6
2018-Feb-19 03:00N 01°16' E 103°48'0 0.2
2018-Feb-19 02:30N 01°16' E 103°48'0 0.0
2018-Feb-19 01:57N 01°16' E 103°48'0 0.0
2018-Feb-19 01:30N 01°16' E 103°48'0 0.0
2018-Feb-19 00:57N 01°16' E 103°48'0 0.0
2018-Feb-19 00:27N 01°16' E 103°48'0 0.0
2018-Feb-18 23:57N 01°16' E 103°48'0 0.0
2018-Feb-18 23:30N 01°16' E 103°48'0 0.0
2018-Feb-18 22:57N 01°16' E 103°48'0 0.0
2018-Feb-18 22:27N 01°16' E 103°48'0 0.0
2018-Feb-18 21:57N 01°16' E 103°48'0 0.1
2018-Feb-18 21:27N 01°16' E 103°48'0 0.1
2018-Feb-18 20:57N 01°16' E 103°48'0 0.0
2018-Feb-18 20:27N 01°16' E 103°48'0 0.0
2018-Feb-18 19:48N 01°16' E 103°48'0 0.0
2018-Feb-18 19:27N 01°16' E 103°48'0 0.0
2018-Feb-18 19:00N 01°16' E 103°48'0 0.0
2018-Feb-18 18:27N 01°16' E 103°48'0 0.0
2018-Feb-18 18:00N 01°16' E 103°48'0 0.0
2018-Feb-18 17:27N 01°16' E 103°48'0 0.0
2018-Feb-18 17:00N 01°16' E 103°48'0 0.0
2018-Feb-18 16:21N 01°16' E 103°48'0 0.0
2018-Feb-18 15:57N 01°16' E 103°48'0 0.0
2018-Feb-18 15:27N 01°16' E 103°48'0 0.0
2018-Feb-18 14:57N 01°16' E 103°48'0 0.0
2018-Feb-18 14:30N 01°16' E 103°48'0 0.0
2018-Feb-18 13:57N 01°16' E 103°48'0 0.0
2018-Feb-18 13:27N 01°16' E 103°48'0 0.0
2018-Feb-18 12:57N 01°16' E 103°48'0 0.0
2018-Feb-18 12:27N 01°16' E 103°48'0 0.0
2018-Feb-18 11:57N 01°16' E 103°48'0 0.0
2018-Feb-18 11:21N 01°16' E 103°48'0 0.0
2018-Feb-18 10:45N 01°16' E 103°48'0 0.0
2018-Feb-18 10:27N 01°16' E 103°48'0 0.0
2018-Feb-18 09:48N 01°16' E 103°48'0 0.0
2018-Feb-18 09:21N 01°16' E 103°48'0 0.0
2018-Feb-18 09:00N 01°16' E 103°48'0 0.0
2018-Feb-18 08:30N 01°16' E 103°48'2 3.8
2018-Feb-18 07:59N 01°15' E 103°46'714.0
2018-Feb-18 07:31N 01°12' E 103°40'5 8.8
2018-Feb-18 06:59N 01°12' E 103°35'3 5.2
2018-Feb-18 06:30N 01°10' E 103°33'3 5.4
2018-Feb-18 05:56N 01°08' E 103°31'511.1
2018-Feb-18 05:30N 01°11' E 103°27'712.9
2018-Feb-18 04:59N 01°15' E 103°21'1014.3
2018-Feb-18 04:16N 01°21' E 103°13'90019.4
2018-Feb-16 06:00N 05°54' E 088°54'   060 / 141020.9 2.2 30.025.829.0

Dump ship's entire track history